Time;durP1;ratioP1;P1;durP2;ratioP2;P2;SDS_P1;SDS_P2;PMS_P1;PMS_P2;Temp;Humidity;BMP_temperature;BMP_pressure;BME280_temperature;BME280_humidity;BME280_pressure;Samples;Min_cycle;Max_cycle;Signal;HPM_P1;HPM_P2
2021/06/26 00:01:39;;;;;;;32.45;23.25;;;;;;;18.06;85.80;96683.79;1677806;84;20921;-80
2021/06/26 00:04:06;;;;;;;29.20;23.10;;;;;;;18.04;85.75;96677.44;1674490;85;20956;-79
2021/06/26 00:06:33;;;;;;;25.70;20.97;;;;;;;18.03;85.73;96681.61;1678137;84;21394;-80
2021/06/26 00:09:00;;;;;;;30.02;22.65;;;;;;;18.02;85.79;96678.69;1666171;85;21000;-80
2021/06/26 00:11:26;;;;;;;27.40;22.90;;;;;;;18.02;85.79;96685.27;1678800;85;20975;-80
2021/06/26 00:13:52;;;;;;;26.97;21.45;;;;;;;17.99;85.91;96677.31;1676239;85;21260;-80
2021/06/26 00:16:18;;;;;;;26.17;21.15;;;;;;;17.96;85.99;96680.39;1680364;85;20996;-80
2021/06/26 00:18:44;;;;;;;27.62;21.82;;;;;;;17.96;85.99;96682.50;1664184;85;20955;-80
2021/06/26 00:21:10;;;;;;;23.40;20.40;;;;;;;17.98;86.05;96690.97;1657966;85;20928;-80
2021/06/26 00:23:36;;;;;;;24.95;20.70;;;;;;;18.02;85.98;96691.33;1657857;85;21007;-80
2021/06/26 00:26:02;;;;;;;23.77;19.10;;;;;;;18.03;85.90;96699.50;1662608;85;21302;-79
2021/06/26 00:28:28;;;;;;;24.32;20.62;;;;;;;18.05;85.92;96694.82;1680396;85;21008;-80
2021/06/26 00:30:53;;;;;;;26.37;21.17;;;;;;;18.08;85.92;96696.23;1669129;85;20973;-79
2021/06/26 00:33:19;;;;;;;26.97;20.85;;;;;;;18.09;85.87;96695.20;1680707;85;20925;-80
2021/06/26 00:35:45;;;;;;;23.95;20.70;;;;;;;18.07;85.80;96696.74;1680797;85;20948;-79
2021/06/26 00:38:11;;;;;;;28.05;19.37;;;;;;;18.07;85.69;96698.57;1678606;85;20904;-80
2021/06/26 00:40:36;;;;;;;22.85;19.77;;;;;;;18.05;85.71;96697.45;1680662;85;21036;-79
2021/06/26 00:43:02;;;;;;;22.22;19.25;;;;;;;18.03;85.67;96701.33;1671425;85;21290;-79
2021/06/26 00:45:28;;;;;;;24.72;19.42;;;;;;;18.03;85.83;96709.22;1677822;85;21060;-79
2021/06/26 00:47:53;;;;;;;22.62;20.20;;;;;;;18.07;85.78;96719.61;1672893;85;20961;-79
2021/06/26 00:50:29;;;;;;;23.15;20.72;;;;;;;18.07;85.66;96713.03;1674132;85;20912;-80
2021/06/26 00:52:54;;;;;;;22.22;19.73;;;;;;;18.05;85.59;96706.66;1680348;85;20925;-79
2021/06/26 00:55:20;;;;;;;22.87;19.12;;;;;;;18.02;85.56;96706.30;1680823;85;21031;-80
2021/06/26 00:58:01;;;;;;;23.35;18.17;;;;;;;17.99;85.56;96706.23;1679337;85;20953;-79
2021/06/26 01:00:30;;;;;;;20.25;18.15;;;;;;;17.99;85.48;96702.28;1680421;85;20913;-79
2021/06/26 01:02:56;;;;;;;23.18;20.15;;;;;;;17.96;85.37;96702.22;1653113;85;20996;-80
2021/06/26 01:05:22;;;;;;;22.87;18.62;;;;;;;17.95;85.39;96703.76;1680826;85;21333;-80
2021/06/26 01:07:48;;;;;;;22.55;18.45;;;;;;;17.95;85.46;96706.39;1679442;85;20980;-80
2021/06/26 01:10:14;;;;;;;21.95;18.50;;;;;;;17.95;85.50;96709.81;1678965;85;20980;-79
2021/06/26 01:12:39;;;;;;;21.17;18.65;;;;;;;17.91;85.51;96700.77;1680808;85;20948;-80
2021/06/26 01:15:07;;;;;;;19.90;17.80;;;;;;;17.94;85.57;96706.09;1678867;85;21252;-80
2021/06/26 01:17:33;;;;;;;19.73;17.37;;;;;;;17.95;85.54;96709.02;1680697;85;21254;-80
2021/06/26 01:20:00;;;;;;;20.25;17.32;;;;;;;17.97;85.52;96706.45;1680916;85;20944;-80
2021/06/26 01:22:28;;;;;;;20.35;18.12;;;;;;;17.99;85.47;96707.03;1680003;85;21008;-80
2021/06/26 01:24:54;;;;;;;21.23;18.62;;;;;;;17.97;85.52;96706.97;1660136;85;20959;-80
2021/06/26 01:27:20;;;;;;;20.12;16.90;;;;;;;17.95;85.53;96703.76;1674139;85;21052;-80
2021/06/26 01:29:48;;;;;;;18.70;16.65;;;;;;;17.92;85.60;96700.26;1671225;85;21047;-79
2021/06/26 01:32:16;;;;;;;20.23;16.17;;;;;;;17.90;85.54;96699.17;1668925;85;21313;-80
2021/06/26 01:34:42;;;;;;;18.70;16.55;;;;;;;17.88;85.55;96695.13;1666740;85;21032;-80
2021/06/26 01:37:07;;;;;;;19.17;17.27;;;;;;;17.88;85.59;96697.24;1670938;85;21432;-79
2021/06/26 01:39:33;;;;;;;18.20;16.32;;;;;;;17.86;85.54;96690.60;1680669;85;20965;-79
2021/06/26 01:41:59;;;;;;;21.42;17.65;;;;;;;17.90;85.55;96691.80;1653213;85;20936;-79
2021/06/26 01:44:25;;;;;;;18.52;16.70;;;;;;;17.92;85.69;96687.12;1669645;85;21041;-80
2021/06/26 01:46:51;;;;;;;19.45;17.45;;;;;;;17.91;85.56;96683.69;1680677;85;21037;-80
2021/06/26 01:49:18;;;;;;;20.35;17.02;;;;;;;17.87;85.43;96691.70;1678741;85;20993;-79
2021/06/26 01:51:44;;;;;;;20.57;17.02;;;;;;;17.84;85.32;96689.52;1680895;85;20974;-79
2021/06/26 01:54:10;;;;;;;18.70;16.95;;;;;;;17.82;85.28;96690.77;1662723;85;21009;-80
2021/06/26 01:56:37;;;;;;;23.18;18.17;;;;;;;17.81;85.29;96683.39;1675320;85;21029;-79
2021/06/26 01:59:03;;;;;;;19.12;17.32;;;;;;;17.81;85.31;96688.64;1672647;85;21294;-80
2021/06/26 02:01:29;;;;;;;21.00;16.75;;;;;;;17.80;85.31;96688.35;1680410;85;20999;-79
2021/06/26 02:03:54;;;;;;;19.37;17.40;;;;;;;17.79;85.36;96691.20;1680807;85;20908;-80
2021/06/26 02:06:20;;;;;;;19.35;17.10;;;;;;;17.79;85.38;96693.83;1679434;85;20957;-80
2021/06/26 02:08:46;;;;;;;21.15;16.85;;;;;;;17.79;85.34;96695.15;1678725;85;20993;-79
2021/06/26 02:11:12;;;;;;;25.10;17.37;;;;;;;17.79;85.33;96696.46;1661482;85;20960;-79
2021/06/26 02:13:38;;;;;;;19.85;16.93;;;;;;;17.80;85.36;96703.32;1679248;85;20909;-80
2021/06/26 02:16:04;;;;;;;20.15;18.17;;;;;;;17.80;85.35;96703.32;1676273;85;20966;-80
2021/06/26 02:18:30;;;;;;;18.62;16.52;;;;;;;17.77;85.36;96695.88;1679823;85;20921;-80
2021/06/26 02:20:56;;;;;;;19.25;16.40;;;;;;;17.75;85.41;96696.10;1679359;85;20917;-80
2021/06/26 02:23:21;;;;;;;20.15;16.17;;;;;;;17.77;85.42;96695.88;1680802;85;21250;-80
2021/06/26 02:25:47;;;;;;;19.80;17.70;;;;;;;17.77;85.45;96698.51;1680697;85;20988;-79
2021/06/26 02:28:13;;;;;;;21.52;18.10;;;;;;;17.79;85.45;96701.20;1680330;85;20901;-80
2021/06/26 02:30:39;;;;;;;20.05;17.82;;;;;;;17.81;85.45;96704.41;1668262;85;21211;-79
2021/06/26 02:33:05;;;;;;;21.97;18.80;;;;;;;17.83;85.44;96704.99;1663971;85;21085;-80
2021/06/26 02:35:31;;;;;;;23.12;19.70;;;;;;;17.84;85.49;96705.80;1673966;85;21210;-79
2021/06/26 02:37:57;;;;;;;20.85;17.75;;;;;;;17.83;85.47;96709.45;1657799;85;21293;-79
2021/06/26 02:40:23;;;;;;;24.50;19.73;;;;;;;17.82;85.42;96703.39;1651140;85;20893;-80
2021/06/26 02:42:48;;;;;;;21.35;19.07;;;;;;;17.82;85.46;96703.39;1669880;85;20921;-80
2021/06/26 02:45:14;;;;;;;20.82;18.75;;;;;;;17.85;85.51;96706.09;1675401;85;21246;-79
2021/06/26 02:47:40;;;;;;;19.87;17.77;;;;;;;17.88;85.43;96706.95;1676022;85;20980;-79
2021/06/26 02:50:07;;;;;;;22.32;19.80;;;;;;;17.90;85.38;96712.83;1666603;85;20948;-80
2021/06/26 02:52:32;;;;;;;21.77;19.12;;;;;;;17.88;85.50;96716.16;1680592;85;21024;-80
2021/06/26 02:54:58;;;;;;;18.70;16.70;;;;;;;17.85;85.42;96713.45;1664886;85;20933;-80
2021/06/26 02:57:25;;;;;;;23.57;20.25;;;;;;;17.84;85.44;96717.11;1664301;85;20926;-79
2021/06/26 02:59:51;;;;;;;21.12;19.05;;;;;;;17.81;85.39;96716.24;1677843;85;20945;-80
2021/06/26 03:02:17;;;;;;;20.48;17.67;;;;;;;17.83;85.58;96719.45;1680640;85;20937;-79
2021/06/26 03:04:43;;;;;;;21.15;18.85;;;;;;;17.88;85.51;96723.53;1680648;85;20925;-80
2021/06/26 03:07:09;;;;;;;22.22;19.17;;;;;;;17.89;85.59;96721.19;1655973;85;20977;-80
2021/06/26 03:09:35;;;;;;;22.58;18.65;;;;;;;17.90;85.56;96721.52;1647550;85;21245;-79
2021/06/26 03:12:01;;;;;;;26.20;20.17;;;;;;;17.92;85.72;96722.09;1638248;85;20967;-79
2021/06/26 03:14:26;;;;;;;24.00;21.45;;;;;;;17.94;85.54;96718.73;1632362;85;20935;-79
2021/06/26 03:16:52;;;;;;;25.48;22.75;;;;;;;17.95;85.60;96717.70;1648258;87;21025;-79
2021/06/26 03:19:18;;;;;;;24.47;22.15;;;;;;;17.94;85.47;96721.88;1637047;85;21026;-79
2021/06/26 03:21:44;;;;;;;25.77;23.15;;;;;;;17.91;85.54;96713.92;1655449;85;20974;-79
2021/06/26 03:24:09;;;;;;;25.30;22.60;;;;;;;17.87;85.59;96717.98;1655355;85;21300;-80
2021/06/26 03:26:35;;;;;;;24.45;22.05;;;;;;;17.80;85.64;96718.58;1655691;85;21044;-79
2021/06/26 03:29:02;;;;;;;24.43;21.93;;;;;;;17.81;85.78;96726.75;1642927;85;20964;-79
2021/06/26 03:31:27;;;;;;;23.90;21.48;;;;;;;17.79;85.69;96723.55;1632753;85;20951;-80
2021/06/26 03:33:54;;;;;;;24.60;22.17;;;;;;;17.76;85.69;96725.30;1645628;85;20996;-79
2021/06/26 03:36:20;;;;;;;26.05;23.25;;;;;;;17.77;85.86;96727.42;1655756;85;21262;-80
2021/06/26 03:38:45;;;;;;;27.00;24.35;;;;;;;17.81;85.91;96733.84;1637831;85;20986;-80
2021/06/26 03:41:11;;;;;;;27.32;24.52;;;;;;;17.77;85.90;96732.67;1646931;86;20933;-80
2021/06/26 03:43:37;;;;;;;25.17;22.58;;;;;;;17.71;86.07;96729.08;1642555;85;21234;-79
2021/06/26 03:46:03;;;;;;;29.12;26.15;;;;;;;17.68;86.21;96733.45;1637626;85;21035;-79
2021/06/26 03:48:29;;;;;;;28.77;24.35;;;;;;;17.67;86.07;96727.88;1647929;85;20985;-79
2021/06/26 03:50:59;;;;;;;27.05;24.27;;;;;;;17.62;86.04;96730.36;1652972;85;21380;-79
2021/06/26 03:53:28;;;;;;;28.92;26.02;;;;;;;17.56;85.97;96731.22;1637529;85;21027;-79
2021/06/26 03:55:55;;;;;;;28.70;25.72;;;;;;;17.55;86.19;96729.61;1651115;87;21023;-79
2021/06/26 03:58:26;;;;;;;29.37;26.35;;;;;;;17.61;86.39;96726.94;1650877;85;20929;-79
2021/06/26 04:00:52;;;;;;;32.25;29.05;;;;;;;17.69;86.42;96728.49;1643091;85;21252;-79
2021/06/26 04:03:17;;;;;;;30.52;27.45;;;;;;;17.71;86.23;96730.39;1650845;87;20946;-79
2021/06/26 04:05:44;;;;;;;30.92;27.93;;;;;;;17.69;86.29;96731.13;1647722;87;21008;-79
2021/06/26 04:08:10;;;;;;;30.10;26.93;;;;;;;17.73;86.40;96723.09;1656141;84;20998;-79
2021/06/26 04:10:37;;;;;;;29.27;26.30;;;;;;;17.76;86.17;96727.93;1674417;85;21022;-79
2021/06/26 04:13:04;;;;;;;31.37;28.17;;;;;;;17.78;86.00;96725.08;1674305;85;21279;-80
2021/06/26 04:15:30;;;;;;;30.48;27.32;;;;;;;17.81;86.00;96720.19;1676543;84;20960;-80
2021/06/26 04:17:56;;;;;;;31.52;28.35;;;;;;;17.82;85.80;96721.79;1661085;85;20986;-79
2021/06/26 04:20:22;;;;;;;35.17;31.50;;;;;;;17.79;85.76;96716.17;1684109;84;20989;-79
2021/06/26 04:22:48;;;;;;;36.15;31.50;;;;;;;17.74;85.62;96723.41;1687396;84;21028;-80
2021/06/26 04:25:14;;;;;;;33.23;29.92;;;;;;;17.74;86.02;96726.55;1688559;84;21209;-79
2021/06/26 04:27:40;;;;;;;31.00;27.90;;;;;;;17.78;86.15;96729.83;1688061;84;21320;-79
2021/06/26 04:30:07;;;;;;;31.52;28.25;;;;;;;17.83;86.10;96729.97;1688500;84;20971;-79
2021/06/26 04:32:35;;;;;;;33.80;30.30;;;;;;;17.89;86.00;96736.16;1686633;84;20924;-79
2021/06/26 04:35:01;;;;;;;35.33;31.82;;;;;;;17.84;85.72;96728.94;1675201;84;21017;-79
2021/06/26 04:37:27;;;;;;;33.88;30.45;;;;;;;17.77;85.59;96726.11;1685414;85;21241;-79
2021/06/26 04:39:52;;;;;;;38.42;32.88;;;;;;;17.77;85.92;96717.70;1686389;84;20924;-79
2021/06/26 04:42:18;;;;;;;35.10;31.48;;;;;;;17.75;85.84;96711.06;1680472;85;20938;-80
2021/06/26 04:44:44;;;;;;;33.20;29.82;;;;;;;17.67;85.70;96713.42;1674427;85;21259;-79
2021/06/26 04:47:09;;;;;;;35.60;31.90;;;;;;;17.63;85.60;96720.14;1674773;84;20950;-79
2021/06/26 04:49:35;;;;;;;36.53;32.63;;;;;;;17.58;85.71;96718.18;1685491;84;20994;-79
2021/06/26 04:52:03;;;;;;;37.30;33.58;;;;;;;17.56;85.73;96722.02;1658278;85;20970;-78
2021/06/26 04:54:29;;;;;;;36.83;33.02;;;;;;;17.54;85.75;96722.75;1656851;84;21109;-80
2021/06/26 04:56:55;;;;;;;38.95;34.85;;;;;;;17.54;85.89;96724.06;1688155;85;20932;-80
2021/06/26 04:59:21;;;;;;;36.28;32.63;;;;;;;17.56;86.16;96725.45;1688479;85;20920;-80
2021/06/26 05:01:47;;;;;;;38.40;34.35;;;;;;;17.59;86.14;96724.23;1686232;84;21242;-79
2021/06/26 05:04:12;;;;;;;39.15;34.98;;;;;;;17.64;86.00;96722.55;1688489;85;20884;-80
2021/06/26 05:06:39;;;;;;;38.83;34.88;;;;;;;17.67;86.04;96718.68;1687808;84;21349;-79
2021/06/26 05:09:05;;;;;;;42.30;37.78;;;;;;;17.70;85.99;96724.33;1654213;85;20983;-80
2021/06/26 05:11:31;;;;;;;42.93;38.70;;;;;;;17.74;85.83;96719.47;1687161;84;21317;-80
2021/06/26 05:13:56;;;;;;;42.38;37.83;;;;;;;17.74;85.75;96719.47;1686707;84;21000;-79
2021/06/26 05:16:22;;;;;;;41.80;37.42;;;;;;;17.76;85.90;96721.36;1632884;85;21056;-79
2021/06/26 05:18:48;;;;;;;41.80;37.50;;;;;;;17.77;85.93;96719.02;1639548;87;20962;-80
2021/06/26 05:21:14;;;;;;;38.42;34.30;;;;;;;17.77;85.63;96728.73;1656706;84;20973;-79
2021/06/26 05:23:39;;;;;;;40.05;35.90;;;;;;;17.78;85.74;96728.52;1665577;84;20995;-79
2021/06/26 05:26:09;;;;;;;41.05;36.75;;;;;;;17.82;85.69;96723.61;1666126;84;21309;-79
2021/06/26 05:28:33;;;;;;;39.30;35.23;;;;;;;17.83;85.56;96725.22;1669949;84;20964;-80
2021/06/26 05:30:58;;;;;;;42.75;38.35;;;;;;;17.82;85.48;96715.22;1684071;84;21241;-80
2021/06/26 05:33:24;;;;;;;46.53;41.73;;;;;;;17.84;85.66;96716.31;1633631;86;20977;-80
2021/06/26 05:35:50;;;;;;;43.65;39.00;;;;;;;17.90;85.54;96717.57;1656562;85;20923;-80
2021/06/26 05:38:16;;;;;;;44.08;39.38;;;;;;;17.96;85.36;96725.08;1672743;84;20932;-80
2021/06/26 05:40:42;;;;;;;44.18;39.63;;;;;;;18.00;85.24;96725.73;1659342;85;20936;-80
2021/06/26 05:43:07;;;;;;;45.95;41.23;;;;;;;18.02;85.18;96726.82;1678357;84;20984;-79
2021/06/26 05:45:33;;;;;;;43.02;38.40;;;;;;;18.05;84.99;96726.38;1674398;84;20964;-80
2021/06/26 05:47:59;;;;;;;43.70;39.10;;;;;;;18.03;84.81;96731.56;1638440;86;21316;-79
2021/06/26 05:50:25;;;;;;;41.60;37.10;;;;;;;18.03;84.97;96739.45;1665877;84;20959;-80
2021/06/26 05:52:53;;;;;;;41.63;37.13;;;;;;;18.05;85.11;96738.20;1655010;84;20955;-79
2021/06/26 05:55:19;;;;;;;42.38;37.95;;;;;;;18.08;85.01;96744.36;1672389;84;21408;-80
2021/06/26 05:57:45;;;;;;;44.48;39.70;;;;;;;18.11;85.08;96742.60;1663272;84;20933;-80
2021/06/26 06:00:12;;;;;;;44.03;39.33;;;;;;;18.14;84.80;96743.98;1657803;85;21016;-79
2021/06/26 06:02:38;;;;;;;41.75;37.28;;;;;;;18.15;84.90;96747.70;1646158;85;21281;-79
2021/06/26 06:05:07;;;;;;;41.08;36.77;;;;;;;18.16;84.82;96748.51;1680903;84;20912;-80
2021/06/26 06:07:37;;;;;;;40.65;36.33;;;;;;;18.16;84.70;96745.88;1684998;84;21162;-80
2021/06/26 06:10:05;;;;;;;40.70;36.40;;;;;;;18.14;84.56;96749.25;1677175;84;21290;-80
2021/06/26 06:12:33;;;;;;;41.95;37.73;;;;;;;18.13;84.42;96743.70;1675258;84;21044;-80
2021/06/26 06:15:00;;;;;;;39.48;35.35;;;;;;;18.11;84.61;96753.13;1639541;86;21033;-80
2021/06/26 06:17:26;;;;;;;42.50;38.13;;;;;;;18.12;84.88;96752.61;1634086;86;21006;-79
2021/06/26 06:19:52;;;;;;;41.55;37.15;;;;;;;18.11;84.68;96755.75;1641473;86;21322;-79
2021/06/26 06:22:18;;;;;;;42.10;37.67;;;;;;;18.07;84.45;96748.53;1645790;85;20958;-80
2021/06/26 06:24:44;;;;;;;41.48;37.28;;;;;;;18.08;84.43;96754.08;1650852;85;20987;-79
2021/06/26 06:27:10;;;;;;;43.65;39.23;;;;;;;18.09;84.48;96757.00;1646222;85;20989;-80
2021/06/26 06:29:35;;;;;;;47.27;42.38;;;;;;;18.03;84.46;96760.48;1659134;84;21049;-79
2021/06/26 06:32:02;;;;;;;48.13;42.62;;;;;;;18.00;84.73;96754.65;1639799;86;21326;-79
2021/06/26 06:34:28;;;;;;;47.40;42.23;;;;;;;17.98;84.82;96760.64;1634234;86;21026;-79
2021/06/26 06:36:53;;;;;;;45.43;40.48;;;;;;;17.98;84.81;96759.84;1640373;86;20954;-79
2021/06/26 06:39:20;;;;;;;47.58;41.63;;;;;;;18.02;84.79;96763.63;1638564;86;21258;-79
2021/06/26 06:41:46;;;;;;;50.60;43.38;;;;;;;18.06;84.71;96752.16;1673983;84;20944;-80
2021/06/26 06:44:11;;;;;;;48.25;43.02;;;;;;;18.08;84.45;96760.66;1649510;85;20963;-79
2021/06/26 06:46:37;;;;;;;45.83;40.85;;;;;;;18.13;84.66;96756.84;1668810;86;21253;-79
2021/06/26 06:49:03;;;;;;;48.00;42.98;;;;;;;18.19;84.54;96762.02;1667635;85;20948;-80
2021/06/26 06:51:29;;;;;;;47.20;42.20;;;;;;;18.27;84.78;96761.73;1667459;85;20966;-79
2021/06/26 06:53:54;;;;;;;47.40;42.40;;;;;;;18.42;84.87;96763.98;1658273;85;21361;-80
2021/06/26 06:56:20;;;;;;;46.13;41.28;;;;;;;18.55;84.76;96766.97;1662393;85;20953;-80
2021/06/26 06:58:46;;;;;;;44.83;40.03;;;;;;;18.67;84.17;96767.83;1663220;85;20929;-79
2021/06/26 07:01:12;;;;;;;46.65;41.65;;;;;;;18.69;83.09;96767.09;1649588;85;21102;-80
2021/06/26 07:03:38;;;;;;;46.85;41.55;;;;;;;18.64;83.38;96766.16;1668969;85;21279;-80
2021/06/26 07:06:04;;;;;;;48.00;41.63;;;;;;;18.71;83.47;96769.49;1653250;86;21026;-80
2021/06/26 07:08:30;;;;;;;44.03;39.35;;;;;;;18.70;82.82;96771.32;1678988;83;20990;-80
2021/06/26 07:10:56;;;;;;;46.95;41.92;;;;;;;18.66;82.29;96768.05;1696058;83;20961;-80
2021/06/26 07:13:22;;;;;;;44.50;39.70;;;;;;;18.65;82.75;96769.88;1696431;83;20941;-80
2021/06/26 07:15:47;;;;;;;46.23;41.28;;;;;;;18.73;82.65;96772.73;1695392;83;21298;-80
2021/06/26 07:18:13;;;;;;;45.98;40.98;;;;;;;18.82;82.72;96772.69;1693572;83;21034;-80
2021/06/26 07:20:40;;;;;;;42.08;37.67;;;;;;;18.89;82.94;96770.78;1693180;83;21010;-80
2021/06/26 07:23:06;;;;;;;43.42;38.73;;;;;;;18.99;83.59;96772.34;1694819;83;20985;-79
2021/06/26 07:25:32;;;;;;;42.90;38.48;;;;;;;19.01;82.26;96773.42;1670142;83;21143;-80
2021/06/26 07:27:58;;;;;;;44.90;38.85;;;;;;;18.93;81.94;96772.45;1696360;83;21290;-79
2021/06/26 07:30:23;;;;;;;42.88;38.48;;;;;;;18.87;81.88;96772.81;1695149;83;20938;-80
2021/06/26 07:32:49;;;;;;;43.45;38.85;;;;;;;18.87;82.37;96770.17;1696061;83;21271;-80
2021/06/26 07:35:15;;;;;;;41.02;36.60;;;;;;;18.90;82.32;96769.75;1696339;83;20941;-80
2021/06/26 07:37:41;;;;;;;43.55;38.85;;;;;;;18.87;81.82;96768.86;1696265;83;20933;-80
2021/06/26 07:40:10;;;;;;;42.60;38.08;;;;;;;18.76;82.19;96773.08;1692692;83;21020;-80
2021/06/26 07:42:35;;;;;;;43.20;38.75;;;;;;;18.73;82.16;96772.22;1648175;86;20994;-80
2021/06/26 07:45:01;;;;;;;45.05;40.30;;;;;;;18.73;82.63;96766.95;1695577;83;21018;-80
2021/06/26 07:47:27;;;;;;;44.58;39.95;;;;;;;18.74;82.53;96765.12;1696031;83;20952;-80
2021/06/26 07:49:53;;;;;;;45.52;40.75;;;;;;;18.72;82.54;96762.72;1695759;83;20905;-80
2021/06/26 07:52:18;;;;;;;43.02;38.53;;;;;;;18.72;82.43;96771.93;1695423;83;21046;-80
2021/06/26 07:54:44;;;;;;;44.50;38.20;;;;;;;18.72;82.24;96773.24;1685833;83;21033;-79
2021/06/26 07:57:10;;;;;;;42.90;38.40;;;;;;;18.79;82.36;96770.52;1654686;85;21005;-80
2021/06/26 07:59:35;;;;;;;44.42;39.70;;;;;;;18.88;82.26;96770.50;1694864;83;21258;-79
2021/06/26 08:02:02;;;;;;;43.40;38.83;;;;;;;18.95;82.54;96772.51;1695677;83;20985;-80
2021/06/26 08:04:27;;;;;;;44.90;40.25;;;;;;;19.02;82.35;96768.45;1673782;83;21037;-80
2021/06/26 08:06:53;;;;;;;43.23;38.60;;;;;;;19.08;82.33;96762.30;1654549;84;20918;-80
2021/06/26 08:09:19;;;;;;;44.20;39.53;;;;;;;19.15;82.14;96762.98;1670628;85;20999;-80
2021/06/26 08:11:44;;;;;;;41.23;37.00;;;;;;;19.21;81.35;96763.42;1667992;85;21026;-80
2021/06/26 08:14:10;;;;;;;42.13;37.75;;;;;;;19.27;81.78;96763.02;1641203;86;21001;-80
2021/06/26 08:16:36;;;;;;;45.10;39.75;;;;;;;19.41;82.07;96757.83;1663137;84;21207;-80
2021/06/26 08:19:02;;;;;;;41.13;37.08;;;;;;;19.37;80.51;96765.91;1663900;85;20931;-80
2021/06/26 08:21:30;;;;;;;42.58;38.30;;;;;;;19.43;80.45;96759.20;1659280;85;20953;-80
2021/06/26 08:23:56;;;;;;;45.67;40.88;;;;;;;19.52;80.58;96754.89;1675047;84;21344;-80
2021/06/26 08:26:21;;;;;;;39.75;35.50;;;;;;;19.63;80.80;96753.61;1675643;84;21011;-80
2021/06/26 08:28:47;;;;;;;41.88;37.58;;;;;;;19.69;79.62;96751.39;1670947;84;20977;-80
2021/06/26 08:31:13;;;;;;;41.53;36.98;;;;;;;19.70;79.50;96754.31;1668929;84;20952;-80
2021/06/26 08:33:39;;;;;;;41.33;37.03;;;;;;;19.73;80.06;96752.53;1683257;84;20889;-80
2021/06/26 08:36:05;;;;;;;37.40;33.50;;;;;;;19.87;81.04;96750.98;1668206;84;21208;-80
2021/06/26 08:38:31;;;;;;;41.25;37.03;;;;;;;19.93;79.81;96746.08;1664692;85;21272;-80
2021/06/26 08:40:57;;;;;;;42.00;37.73;;;;;;;19.99;79.47;96745.14;1682963;84;20908;-80
2021/06/26 08:43:22;;;;;;;42.05;37.55;;;;;;;20.06;79.39;96747.16;1676664;85;20901;-80
2021/06/26 08:45:48;;;;;;;42.58;38.20;;;;;;;20.16;79.25;96740.75;1664979;85;20966;-80
2021/06/26 08:48:14;;;;;;;40.30;36.23;;;;;;;20.22;78.91;96749.59;1661742;84;20913;-80
2021/06/26 08:50:40;;;;;;;37.95;33.98;;;;;;;20.23;79.19;96752.51;1673693;84;20924;-79
2021/06/26 08:53:07;;;;;;;42.23;37.85;;;;;;;20.25;79.14;96747.28;1681494;84;20948;-80
2021/06/26 08:55:33;;;;;;;40.88;36.63;;;;;;;20.32;77.96;96746.61;1682961;84;21032;-80
2021/06/26 08:58:04;;;;;;;40.63;36.55;;;;;;;20.33;77.56;96742.94;1682815;84;20968;-80
2021/06/26 09:00:30;;;;;;;38.90;34.90;;;;;;;20.38;77.89;96744.38;1669746;84;20942;-80
2021/06/26 09:03:14;;;;;;;37.65;33.55;;;;;;;20.45;77.19;96740.81;1682979;84;21052;-80
2021/06/26 09:05:41;;;;;;;39.35;35.30;;;;;;;20.47;76.77;96735.58;1680432;84;21012;-80
2021/06/26 09:08:14;;;;;;;40.55;36.35;;;;;;;20.51;77.63;96730.66;1681987;84;21313;-81
2021/06/26 09:10:42;;;;;;;41.42;37.30;;;;;;;20.65;77.66;96733.27;1677717;84;20963;-79
2021/06/26 09:13:19;;;;;;;43.55;39.18;;;;;;;20.78;77.61;96734.81;1677912;84;20952;-80
2021/06/26 09:15:45;;;;;;;40.95;36.85;;;;;;;20.90;77.29;96735.56;1666161;84;21371;-80
2021/06/26 09:18:19;;;;;;;40.73;36.45;;;;;;;21.04;76.72;96728.94;1641645;86;21030;-80
2021/06/26 09:20:54;;;;;;;33.02;29.77;;;;;;;21.30;76.75;96732.00;1669302;85;20959;-81
2021/06/26 09:23:34;;;;;;;39.13;35.23;;;;;;;21.38;73.00;96730.30;1662518;85;20979;-80
2021/06/26 09:26:10;;;;;;;36.33;32.73;;;;;;;21.35;75.04;96721.53;1661454;85;21074;-80
2021/06/26 09:28:37;;;;;;;34.80;31.45;;;;;;;21.51;75.78;96716.75;1649827;86;21017;-80
2021/06/26 09:31:04;;;;;;;34.45;31.25;;;;;;;21.69;74.45;96713.03;1649935;85;20994;-80
2021/06/26 09:33:30;;;;;;;32.98;29.77;;;;;;;21.97;75.70;96716.84;1640254;86;20965;-80
2021/06/26 09:36:10;;;;;;;29.18;26.33;;;;;;;22.04;73.28;96717.45;1625820;86;20946;-80
2021/06/26 09:38:55;;;;;;;30.55;27.65;;;;;;;22.04;73.28;96717.45;1655635;85;21356;-81
2021/06/26 09:41:20;;;;;;;32.30;29.12;;;;;;;21.92;73.33;96713.31;1664715;85;21249;-80
2021/06/26 09:43:46;;;;;;;32.78;29.57;;;;;;;21.88;73.62;96719.62;1665149;85;20942;-81
2021/06/26 09:46:16;;;;;;;30.72;27.93;;;;;;;21.88;72.96;96715.14;1667319;85;20958;-80
2021/06/26 09:48:53;;;;;;;25.00;22.73;;;;;;;21.91;72.95;96715.16;1666561;85;21312;-80
2021/06/26 09:51:26;;;;;;;24.45;22.17;;;;;;;21.97;71.45;96714.73;1666970;85;21009;-80
2021/06/26 09:53:59;;;;;;;30.68;27.75;;;;;;;22.18;70.93;96713.16;1666616;85;21011;-81
2021/06/26 09:56:46;;;;;;;28.67;25.92;;;;;;;22.35;69.57;96711.23;1664393;85;21016;-81
2021/06/26 09:59:14;;;;;;;29.52;26.75;;;;;;;22.47;71.05;96710.57;1663940;85;20923;-81
2021/06/26 10:01:42;;;;;;;29.63;26.87;;;;;;;22.40;68.76;96715.25;1650016;85;20932;-80
2021/06/26 10:04:14;;;;;;;27.22;24.72;;;;;;;22.28;70.45;96715.89;1655686;85;20967;-80
2021/06/26 10:06:40;;;;;;;27.62;25.12;;;;;;;22.16;68.71;96716.05;1641347;85;20995;-80
2021/06/26 10:09:06;;;;;;;27.65;25.08;;;;;;;22.05;68.96;96709.02;1666046;85;21025;-80
2021/06/26 10:11:32;;;;;;;29.52;26.80;;;;;;;22.18;69.33;96709.18;1668901;85;21004;-80
2021/06/26 10:14:01;;;;;;;28.52;25.88;;;;;;;22.50;69.75;96715.37;1667454;85;20940;-81
2021/06/26 10:16:30;;;;;;;29.15;26.55;;;;;;;22.75;68.71;96708.98;1686571;85;21058;-81
2021/06/26 10:19:00;;;;;;;29.72;27.10;;;;;;;22.88;68.61;96713.11;1672145;84;20944;-80
2021/06/26 10:21:27;;;;;;;30.35;27.50;;;;;;;22.80;68.73;96707.45;1679218;84;20916;-80
2021/06/26 10:23:58;;;;;;;28.27;25.77;;;;;;;22.64;69.34;96710.48;1674065;84;20975;-80
2021/06/26 10:26:24;;;;;;;30.45;27.77;;;;;;;22.48;69.37;96714.02;1626412;85;20972;-80
2021/06/26 10:28:53;;;;;;;27.85;25.40;;;;;;;22.35;70.20;96714.67;1683074;84;20957;-80
2021/06/26 10:31:41;;;;;;;28.42;25.90;;;;;;;22.27;70.11;96713.77;1658578;85;20959;-81
2021/06/26 10:34:11;;;;;;;30.92;28.12;;;;;;;22.16;70.06;96718.17;1663881;84;20934;-80
2021/06/26 10:36:39;;;;;;;27.95;25.35;;;;;;;21.98;70.17;96717.65;1647417;84;20955;-80
2021/06/26 10:39:27;;;;;;;25.57;23.25;;;;;;;21.82;70.37;96716.13;1653071;85;20986;-80
2021/06/26 10:42:02;;;;;;;22.87;20.65;;;;;;;21.79;70.93;96714.47;1678055;85;20929;-80
2021/06/26 10:44:48;;;;;;;24.87;22.67;;;;;;;21.83;70.42;96713.76;1659272;84;20994;-80
2021/06/26 10:47:15;;;;;;;23.40;21.27;;;;;;;21.71;69.76;96720.99;1653987;84;21011;-80
2021/06/26 10:49:41;;;;;;;26.27;23.87;;;;;;;21.66;70.46;96720.94;1661761;85;20988;-80
2021/06/26 10:52:10;;;;;;;27.05;24.63;;;;;;;21.64;69.61;96720.38;1682320;84;20972;-80
2021/06/26 10:54:36;;;;;;;25.30;23.12;;;;;;;21.70;69.94;96721.23;1680750;84;21085;-80
2021/06/26 10:57:06;;;;;;;23.80;21.70;;;;;;;21.69;70.30;96718.31;1671811;85;20996;-80
2021/06/26 10:59:32;;;;;;;21.93;19.92;;;;;;;22.00;70.86;96715.55;1682474;84;21281;-80
2021/06/26 11:02:02;;;;;;;22.48;20.57;;;;;;;22.34;71.01;96717.05;1679948;84;20924;-80
2021/06/26 11:04:28;;;;;;;22.35;20.55;;;;;;;22.48;69.11;96720.11;1680770;84;20948;-80
2021/06/26 11:07:13;;;;;;;23.45;21.35;;;;;;;22.68;68.65;96717.66;1683800;83;20939;-80
2021/06/26 11:09:48;;;;;;;22.45;20.35;;;;;;;22.97;68.91;96722.73;1639783;85;20999;-80
2021/06/26 11:12:18;;;;;;;21.80;19.90;;;;;;;23.26;68.34;96715.27;1655253;85;21029;-80
2021/06/26 11:14:56;;;;;;;18.62;17.02;;;;;;;23.22;67.07;96704.38;1691143;85;21005;-80
2021/06/26 11:17:25;;;;;;;20.68;18.95;;;;;;;23.22;67.48;96709.67;1675673;84;21033;-80